sensor_id;sensor_type;location;lat;lon;timestamp;temperature;humidity
28075;DHT22;15385;51.088;6.572;2023-05-07T00:00:22;18.70;99.90
28075;DHT22;15385;51.088;6.572;2023-05-07T00:02:53;18.70;99.90
28075;DHT22;15385;51.088;6.572;2023-05-07T00:05:23;18.70;99.90
28075;DHT22;15385;51.088;6.572;2023-05-07T00:07:54;18.70;99.90
28075;DHT22;15385;51.088;6.572;2023-05-07T00:10:25;18.70;99.90
28075;DHT22;15385;51.088;6.572;2023-05-07T00:12:55;18.70;99.90
28075;DHT22;15385;51.088;6.572;2023-05-07T00:15:26;18.70;99.90
28075;DHT22;15385;51.088;6.572;2023-05-07T00:17:57;18.60;99.90
28075;DHT22;15385;51.088;6.572;2023-05-07T00:20:29;18.60;99.90
28075;DHT22;15385;51.088;6.572;2023-05-07T00:23:00;18.70;99.90
28075;DHT22;15385;51.088;6.572;2023-05-07T00:25:30;18.70;99.90
28075;DHT22;15385;51.088;6.572;2023-05-07T00:28:01;18.60;99.90
28075;DHT22;15385;51.088;6.572;2023-05-07T00:30:34;18.50;99.90
28075;DHT22;15385;51.088;6.572;2023-05-07T00:33:04;18.40;99.90
28075;DHT22;15385;51.088;6.572;2023-05-07T00:35:35;18.40;99.90
28075;DHT22;15385;51.088;6.572;2023-05-07T00:38:05;18.40;99.90
28075;DHT22;15385;51.088;6.572;2023-05-07T00:40:36;18.40;99.90
28075;DHT22;15385;51.088;6.572;2023-05-07T00:43:06;18.40;99.90
28075;DHT22;15385;51.088;6.572;2023-05-07T00:45:37;18.40;99.90
28075;DHT22;15385;51.088;6.572;2023-05-07T00:48:08;18.40;99.90
28075;DHT22;15385;51.088;6.572;2023-05-07T00:50:38;18.40;99.90
28075;DHT22;15385;51.088;6.572;2023-05-07T00:53:09;18.40;99.90
28075;DHT22;15385;51.088;6.572;2023-05-07T00:55:40;18.40;99.90
28075;DHT22;15385;51.088;6.572;2023-05-07T00:58:11;18.40;99.90
28075;DHT22;15385;51.088;6.572;2023-05-07T01:00:41;18.50;99.90
28075;DHT22;15385;51.088;6.572;2023-05-07T01:03:12;18.40;99.90
28075;DHT22;15385;51.088;6.572;2023-05-07T01:05:43;18.40;99.90
28075;DHT22;15385;51.088;6.572;2023-05-07T01:08:15;18.40;99.90
28075;DHT22;15385;51.088;6.572;2023-05-07T01:10:47;18.40;99.90
28075;DHT22;15385;51.088;6.572;2023-05-07T01:13:18;18.40;99.90
28075;DHT22;15385;51.088;6.572;2023-05-07T01:15:49;18.50;99.90
28075;DHT22;15385;51.088;6.572;2023-05-07T01:18:20;18.50;99.90
28075;DHT22;15385;51.088;6.572;2023-05-07T01:20:52;18.40;99.90
28075;DHT22;15385;51.088;6.572;2023-05-07T01:23:24;18.50;99.90
28075;DHT22;15385;51.088;6.572;2023-05-07T01:25:56;18.40;99.90
28075;DHT22;15385;51.088;6.572;2023-05-07T01:28:26;18.40;99.90
28075;DHT22;15385;51.088;6.572;2023-05-07T01:31:01;18.50;99.90
28075;DHT22;15385;51.088;6.572;2023-05-07T01:33:35;18.30;99.90
28075;DHT22;15385;51.088;6.572;2023-05-07T01:36:07;18.40;99.90
28075;DHT22;15385;51.088;6.572;2023-05-07T01:38:39;18.30;99.90
28075;DHT22;15385;51.088;6.572;2023-05-07T01:41:12;18.30;99.90
28075;DHT22;15385;51.088;6.572;2023-05-07T01:43:43;18.20;99.90
28075;DHT22;15385;51.088;6.572;2023-05-07T01:46:15;18.30;99.90
28075;DHT22;15385;51.088;6.572;2023-05-07T01:48:46;18.20;99.90
28075;DHT22;15385;51.088;6.572;2023-05-07T01:51:17;18.20;99.90
28075;DHT22;15385;51.088;6.572;2023-05-07T01:53:47;18.20;99.90
28075;DHT22;15385;51.088;6.572;2023-05-07T01:56:21;18.30;99.90
28075;DHT22;15385;51.088;6.572;2023-05-07T01:58:51;18.30;99.90
28075;DHT22;15385;51.088;6.572;2023-05-07T02:01:22;18.30;99.90
28075;DHT22;15385;51.088;6.572;2023-05-07T02:03:53;18.30;99.90
28075;DHT22;15385;51.088;6.572;2023-05-07T02:06:24;18.30;99.90
28075;DHT22;15385;51.088;6.572;2023-05-07T02:08:54;18.30;99.90
28075;DHT22;15385;51.088;6.572;2023-05-07T02:11:25;18.30;99.90
28075;DHT22;15385;51.088;6.572;2023-05-07T02:13:56;18.20;99.90
28075;DHT22;15385;51.088;6.572;2023-05-07T02:16:26;18.20;99.90
28075;DHT22;15385;51.088;6.572;2023-05-07T02:18:57;18.20;99.90
28075;DHT22;15385;51.088;6.572;2023-05-07T02:21:28;18.10;99.90
28075;DHT22;15385;51.088;6.572;2023-05-07T02:23:59;18.10;99.90
28075;DHT22;15385;51.088;6.572;2023-05-07T02:26:29;18.10;99.90
28075;DHT22;15385;51.088;6.572;2023-05-07T02:29:00;18.20;99.90
28075;DHT22;15385;51.088;6.572;2023-05-07T02:31:30;18.10;99.90
28075;DHT22;15385;51.088;6.572;2023-05-07T02:34:01;18.10;99.90
28075;DHT22;15385;51.088;6.572;2023-05-07T02:36:32;18.10;99.90
28075;DHT22;15385;51.088;6.572;2023-05-07T02:39:03;18.10;99.90
28075;DHT22;15385;51.088;6.572;2023-05-07T02:41:33;18.00;99.90
28075;DHT22;15385;51.088;6.572;2023-05-07T02:44:04;18.00;99.90
28075;DHT22;15385;51.088;6.572;2023-05-07T02:46:35;18.00;99.90
28075;DHT22;15385;51.088;6.572;2023-05-07T02:49:05;17.90;99.90
28075;DHT22;15385;51.088;6.572;2023-05-07T02:51:36;17.90;99.90
28075;DHT22;15385;51.088;6.572;2023-05-07T02:54:07;17.90;99.90
28075;DHT22;15385;51.088;6.572;2023-05-07T02:56:37;17.90;99.90
28075;DHT22;15385;51.088;6.572;2023-05-07T02:59:08;17.90;99.90
28075;DHT22;15385;51.088;6.572;2023-05-07T03:01:38;18.00;99.90
28075;DHT22;15385;51.088;6.572;2023-05-07T03:04:09;17.90;99.90
28075;DHT22;15385;51.088;6.572;2023-05-07T03:06:40;17.90;99.90
28075;DHT22;15385;51.088;6.572;2023-05-07T03:09:11;18.00;99.90
28075;DHT22;15385;51.088;6.572;2023-05-07T03:11:42;17.90;99.90
28075;DHT22;15385;51.088;6.572;2023-05-07T03:14:13;17.90;99.90
28075;DHT22;15385;51.088;6.572;2023-05-07T03:16:43;17.90;99.90
28075;DHT22;15385;51.088;6.572;2023-05-07T03:19:14;17.90;99.90
28075;DHT22;15385;51.088;6.572;2023-05-07T03:21:44;17.90;99.90
28075;DHT22;15385;51.088;6.572;2023-05-07T03:24:15;17.90;99.90
28075;DHT22;15385;51.088;6.572;2023-05-07T03:26:46;17.80;99.90
28075;DHT22;15385;51.088;6.572;2023-05-07T03:29:16;17.80;99.90
28075;DHT22;15385;51.088;6.572;2023-05-07T03:31:47;17.80;99.90
28075;DHT22;15385;51.088;6.572;2023-05-07T03:34:17;17.80;99.90
28075;DHT22;15385;51.088;6.572;2023-05-07T03:36:52;17.90;99.90
28075;DHT22;15385;51.088;6.572;2023-05-07T03:39:22;17.80;99.90
28075;DHT22;15385;51.088;6.572;2023-05-07T03:41:53;17.80;99.90
28075;DHT22;15385;51.088;6.572;2023-05-07T03:44:24;17.80;99.90
28075;DHT22;15385;51.088;6.572;2023-05-07T03:46:54;17.80;99.90
28075;DHT22;15385;51.088;6.572;2023-05-07T03:49:25;17.80;99.90
28075;DHT22;15385;51.088;6.572;2023-05-07T03:51:56;17.70;99.90
28075;DHT22;15385;51.088;6.572;2023-05-07T03:54:26;17.80;99.90
28075;DHT22;15385;51.088;6.572;2023-05-07T03:56:57;17.70;99.90
28075;DHT22;15385;51.088;6.572;2023-05-07T03:59:28;17.70;99.90
28075;DHT22;15385;51.088;6.572;2023-05-07T04:01:58;17.80;99.90
28075;DHT22;15385;51.088;6.572;2023-05-07T04:04:29;17.80;99.90
28075;DHT22;15385;51.088;6.572;2023-05-07T04:07:03;17.70;99.90
28075;DHT22;15385;51.088;6.572;2023-05-07T04:09:33;17.70;99.90
28075;DHT22;15385;51.088;6.572;2023-05-07T04:12:04;17.70;99.90
28075;DHT22;15385;51.088;6.572;2023-05-07T04:14:35;17.70;99.90
28075;DHT22;15385;51.088;6.572;2023-05-07T04:17:05;17.70;99.90
28075;DHT22;15385;51.088;6.572;2023-05-07T04:19:37;17.70;99.90
28075;DHT22;15385;51.088;6.572;2023-05-07T04:22:09;17.70;99.90
28075;DHT22;15385;51.088;6.572;2023-05-07T04:24:40;17.70;99.90
28075;DHT22;15385;51.088;6.572;2023-05-07T04:27:11;17.80;99.90
28075;DHT22;15385;51.088;6.572;2023-05-07T04:29:41;17.80;99.90
28075;DHT22;15385;51.088;6.572;2023-05-07T04:32:13;17.80;99.90
28075;DHT22;15385;51.088;6.572;2023-05-07T04:34:43;17.80;99.90
28075;DHT22;15385;51.088;6.572;2023-05-07T04:37:14;17.90;99.90
28075;DHT22;15385;51.088;6.572;2023-05-07T04:39:45;17.90;99.90
28075;DHT22;15385;51.088;6.572;2023-05-07T04:42:16;17.90;99.90
28075;DHT22;15385;51.088;6.572;2023-05-07T04:44:47;17.90;99.90
28075;DHT22;15385;51.088;6.572;2023-05-07T04:47:17;17.90;99.90
28075;DHT22;15385;51.088;6.572;2023-05-07T04:49:48;17.90;99.90
28075;DHT22;15385;51.088;6.572;2023-05-07T04:52:18;17.90;99.90
28075;DHT22;15385;51.088;6.572;2023-05-07T04:54:49;17.80;99.90
28075;DHT22;15385;51.088;6.572;2023-05-07T04:57:20;17.70;99.90
28075;DHT22;15385;51.088;6.572;2023-05-07T04:59:50;17.80;99.90
28075;DHT22;15385;51.088;6.572;2023-05-07T05:02:21;17.70;99.90
28075;DHT22;15385;51.088;6.572;2023-05-07T05:04:51;17.70;99.90
28075;DHT22;15385;51.088;6.572;2023-05-07T05:07:22;17.70;99.90
28075;DHT22;15385;51.088;6.572;2023-05-07T05:09:52;17.70;99.90
28075;DHT22;15385;51.088;6.572;2023-05-07T05:12:23;17.80;99.90
28075;DHT22;15385;51.088;6.572;2023-05-07T05:14:54;17.90;99.90
28075;DHT22;15385;51.088;6.572;2023-05-07T05:17:24;17.90;99.90
28075;DHT22;15385;51.088;6.572;2023-05-07T05:19:55;18.00;99.90
28075;DHT22;15385;51.088;6.572;2023-05-07T05:22:26;18.00;99.90
28075;DHT22;15385;51.088;6.572;2023-05-07T05:25:00;18.00;99.90
28075;DHT22;15385;51.088;6.572;2023-05-07T05:27:31;18.00;99.90
28075;DHT22;15385;51.088;6.572;2023-05-07T05:30:03;18.00;99.90
28075;DHT22;15385;51.088;6.572;2023-05-07T05:32:33;17.70;99.90
28075;DHT22;15385;51.088;6.572;2023-05-07T05:35:04;17.60;99.90
28075;DHT22;15385;51.088;6.572;2023-05-07T05:37:35;17.60;99.90
28075;DHT22;15385;51.088;6.572;2023-05-07T05:40:06;17.50;99.90
28075;DHT22;15385;51.088;6.572;2023-05-07T05:42:36;17.40;99.90
28075;DHT22;15385;51.088;6.572;2023-05-07T05:45:08;17.40;99.90
28075;DHT22;15385;51.088;6.572;2023-05-07T05:47:38;17.50;99.90
28075;DHT22;15385;51.088;6.572;2023-05-07T05:50:09;17.50;99.90
28075;DHT22;15385;51.088;6.572;2023-05-07T05:52:40;17.70;99.90
28075;DHT22;15385;51.088;6.572;2023-05-07T05:55:11;17.90;99.90
28075;DHT22;15385;51.088;6.572;2023-05-07T05:57:41;18.00;99.90
28075;DHT22;15385;51.088;6.572;2023-05-07T06:00:12;18.10;99.90
28075;DHT22;15385;51.088;6.572;2023-05-07T06:02:43;18.20;99.90
28075;DHT22;15385;51.088;6.572;2023-05-07T06:05:14;18.30;99.90
28075;DHT22;15385;51.088;6.572;2023-05-07T06:07:45;18.30;99.90
28075;DHT22;15385;51.088;6.572;2023-05-07T06:10:15;18.20;99.90
28075;DHT22;15385;51.088;6.572;2023-05-07T06:12:46;18.20;99.90
28075;DHT22;15385;51.088;6.572;2023-05-07T06:15:17;18.30;99.90
28075;DHT22;15385;51.088;6.572;2023-05-07T06:17:47;18.40;99.90
28075;DHT22;15385;51.088;6.572;2023-05-07T06:20:19;18.40;99.90
28075;DHT22;15385;51.088;6.572;2023-05-07T06:22:50;18.50;99.90
28075;DHT22;15385;51.088;6.572;2023-05-07T06:25:20;18.50;99.90
28075;DHT22;15385;51.088;6.572;2023-05-07T06:27:52;18.60;99.90
28075;DHT22;15385;51.088;6.572;2023-05-07T06:30:22;18.60;99.90
28075;DHT22;15385;51.088;6.572;2023-05-07T06:32:53;18.80;99.90
28075;DHT22;15385;51.088;6.572;2023-05-07T06:35:23;18.80;99.90
28075;DHT22;15385;51.088;6.572;2023-05-07T06:37:54;18.80;99.90
28075;DHT22;15385;51.088;6.572;2023-05-07T06:40:25;18.90;99.90
28075;DHT22;15385;51.088;6.572;2023-05-07T06:42:55;18.90;99.90
28075;DHT22;15385;51.088;6.572;2023-05-07T06:45:26;18.90;99.90
28075;DHT22;15385;51.088;6.572;2023-05-07T06:47:56;19.00;99.90
28075;DHT22;15385;51.088;6.572;2023-05-07T06:50:27;18.90;99.90
28075;DHT22;15385;51.088;6.572;2023-05-07T06:52:58;18.90;99.90
28075;DHT22;15385;51.088;6.572;2023-05-07T06:55:28;18.90;99.90
28075;DHT22;15385;51.088;6.572;2023-05-07T06:57:59;18.90;99.90
28075;DHT22;15385;51.088;6.572;2023-05-07T07:00:31;19.00;99.90
28075;DHT22;15385;51.088;6.572;2023-05-07T07:03:01;19.00;99.90
28075;DHT22;15385;51.088;6.572;2023-05-07T07:05:32;19.20;99.90
28075;DHT22;15385;51.088;6.572;2023-05-07T07:08:03;19.30;99.90
28075;DHT22;15385;51.088;6.572;2023-05-07T07:10:33;19.40;99.90
28075;DHT22;15385;51.088;6.572;2023-05-07T07:13:04;19.60;99.90
28075;DHT22;15385;51.088;6.572;2023-05-07T07:15:34;19.80;99.90
28075;DHT22;15385;51.088;6.572;2023-05-07T07:18:05;19.80;99.90
28075;DHT22;15385;51.088;6.572;2023-05-07T07:20:36;19.90;99.90
28075;DHT22;15385;51.088;6.572;2023-05-07T07:23:07;19.90;99.90
28075;DHT22;15385;51.088;6.572;2023-05-07T07:25:37;19.90;99.90
28075;DHT22;15385;51.088;6.572;2023-05-07T07:28:08;19.80;99.90
28075;DHT22;15385;51.088;6.572;2023-05-07T07:30:39;19.90;99.90
28075;DHT22;15385;51.088;6.572;2023-05-07T07:33:10;20.10;99.90
28075;DHT22;15385;51.088;6.572;2023-05-07T07:35:40;20.30;99.90
28075;DHT22;15385;51.088;6.572;2023-05-07T07:38:11;20.50;99.90
28075;DHT22;15385;51.088;6.572;2023-05-07T07:40:41;20.60;99.90
28075;DHT22;15385;51.088;6.572;2023-05-07T07:43:14;20.80;99.90
28075;DHT22;15385;51.088;6.572;2023-05-07T07:45:44;20.90;99.90
28075;DHT22;15385;51.088;6.572;2023-05-07T07:48:16;21.00;99.90
28075;DHT22;15385;51.088;6.572;2023-05-07T07:50:49;21.20;99.90
28075;DHT22;15385;51.088;6.572;2023-05-07T07:53:20;21.20;99.90
28075;DHT22;15385;51.088;6.572;2023-05-07T07:55:51;21.30;99.90
28075;DHT22;15385;51.088;6.572;2023-05-07T07:58:21;21.20;99.90
28075;DHT22;15385;51.088;6.572;2023-05-07T08:00:52;21.30;99.90
28075;DHT22;15385;51.088;6.572;2023-05-07T08:03:26;21.50;99.90
28075;DHT22;15385;51.088;6.572;2023-05-07T08:05:56;21.50;99.90
28075;DHT22;15385;51.088;6.572;2023-05-07T08:08:27;21.60;99.90
28075;DHT22;15385;51.088;6.572;2023-05-07T08:10:57;21.70;99.90
28075;DHT22;15385;51.088;6.572;2023-05-07T08:13:28;21.70;99.90
28075;DHT22;15385;51.088;6.572;2023-05-07T08:15:58;21.70;99.90
28075;DHT22;15385;51.088;6.572;2023-05-07T08:18:29;21.60;99.90
28075;DHT22;15385;51.088;6.572;2023-05-07T08:21:01;21.50;99.90
28075;DHT22;15385;51.088;6.572;2023-05-07T08:23:31;21.60;99.90
28075;DHT22;15385;51.088;6.572;2023-05-07T08:26:02;21.70;99.90
28075;DHT22;15385;51.088;6.572;2023-05-07T08:28:33;21.70;99.90
28075;DHT22;15385;51.088;6.572;2023-05-07T08:31:03;21.50;99.90
28075;DHT22;15385;51.088;6.572;2023-05-07T08:33:34;21.30;99.90
28075;DHT22;15385;51.088;6.572;2023-05-07T08:36:05;21.40;99.90
28075;DHT22;15385;51.088;6.572;2023-05-07T08:38:35;21.50;99.90
28075;DHT22;15385;51.088;6.572;2023-05-07T08:41:06;21.70;99.90
28075;DHT22;15385;51.088;6.572;2023-05-07T08:43:38;21.90;99.90
28075;DHT22;15385;51.088;6.572;2023-05-07T08:46:11;22.00;99.90
28075;DHT22;15385;51.088;6.572;2023-05-07T08:48:42;22.20;99.90
28075;DHT22;15385;51.088;6.572;2023-05-07T08:51:13;22.20;99.90
28075;DHT22;15385;51.088;6.572;2023-05-07T08:53:44;22.40;99.90
28075;DHT22;15385;51.088;6.572;2023-05-07T08:56:16;22.40;99.90
28075;DHT22;15385;51.088;6.572;2023-05-07T08:58:48;22.50;99.90
28075;DHT22;15385;51.088;6.572;2023-05-07T09:01:18;22.60;99.90
28075;DHT22;15385;51.088;6.572;2023-05-07T09:03:49;22.70;99.90
28075;DHT22;15385;51.088;6.572;2023-05-07T09:06:20;22.90;99.90
28075;DHT22;15385;51.088;6.572;2023-05-07T09:08:52;22.90;99.90
28075;DHT22;15385;51.088;6.572;2023-05-07T09:11:24;22.90;99.90
28075;DHT22;15385;51.088;6.572;2023-05-07T09:13:56;22.80;99.90
28075;DHT22;15385;51.088;6.572;2023-05-07T09:16:29;22.90;99.90
28075;DHT22;15385;51.088;6.572;2023-05-07T09:19:00;23.20;99.90
28075;DHT22;15385;51.088;6.572;2023-05-07T09:21:31;23.30;99.90
28075;DHT22;15385;51.088;6.572;2023-05-07T09:24:02;23.30;99.90
28075;DHT22;15385;51.088;6.572;2023-05-07T09:26:32;23.20;99.90
28075;DHT22;15385;51.088;6.572;2023-05-07T09:29:05;23.10;99.90
28075;DHT22;15385;51.088;6.572;2023-05-07T09:31:39;23.00;99.90
28075;DHT22;15385;51.088;6.572;2023-05-07T09:34:09;23.00;99.90
28075;DHT22;15385;51.088;6.572;2023-05-07T09:36:40;23.10;99.90
28075;DHT22;15385;51.088;6.572;2023-05-07T09:39:11;23.30;99.90
28075;DHT22;15385;51.088;6.572;2023-05-07T09:41:46;23.60;99.90
28075;DHT22;15385;51.088;6.572;2023-05-07T09:44:18;24.00;99.90
28075;DHT22;15385;51.088;6.572;2023-05-07T09:46:54;24.30;99.90
28075;DHT22;15385;51.088;6.572;2023-05-07T09:49:29;24.40;99.90
28075;DHT22;15385;51.088;6.572;2023-05-07T09:52:01;24.30;99.90
28075;DHT22;15385;51.088;6.572;2023-05-07T09:54:33;24.20;99.90
28075;DHT22;15385;51.088;6.572;2023-05-07T09:57:04;24.20;99.90
28075;DHT22;15385;51.088;6.572;2023-05-07T09:59:37;24.30;99.90
28075;DHT22;15385;51.088;6.572;2023-05-07T10:02:09;24.50;99.90
28075;DHT22;15385;51.088;6.572;2023-05-07T10:04:40;24.60;99.90
28075;DHT22;15385;51.088;6.572;2023-05-07T10:07:14;24.60;99.90
28075;DHT22;15385;51.088;6.572;2023-05-07T10:09:46;24.60;99.90
28075;DHT22;15385;51.088;6.572;2023-05-07T10:12:18;24.60;99.90
28075;DHT22;15385;51.088;6.572;2023-05-07T10:14:50;24.50;99.90
28075;DHT22;15385;51.088;6.572;2023-05-07T10:17:23;24.50;99.90
28075;DHT22;15385;51.088;6.572;2023-05-07T10:19:54;24.50;99.90
28075;DHT22;15385;51.088;6.572;2023-05-07T10:22:26;24.40;99.90
28075;DHT22;15385;51.088;6.572;2023-05-07T10:24:59;24.40;99.90
28075;DHT22;15385;51.088;6.572;2023-05-07T10:27:33;24.50;99.90
28075;DHT22;15385;51.088;6.572;2023-05-07T10:33:09;24.80;99.90
28075;DHT22;15385;51.088;6.572;2023-05-07T10:35:43;24.80;99.90
28075;DHT22;15385;51.088;6.572;2023-05-07T10:38:14;25.00;99.90
28075;DHT22;15385;51.088;6.572;2023-05-07T10:40:44;25.00;99.90
28075;DHT22;15385;51.088;6.572;2023-05-07T10:43:15;24.90;99.90
28075;DHT22;15385;51.088;6.572;2023-05-07T10:46:11;25.00;99.90
28075;DHT22;15385;51.088;6.572;2023-05-07T10:51:33;25.10;99.90
28075;DHT22;15385;51.088;6.572;2023-05-07T10:56:43;25.10;99.90
28075;DHT22;15385;51.088;6.572;2023-05-07T11:01:55;24.80;99.90
28075;DHT22;15385;51.088;6.572;2023-05-07T11:04:26;24.80;99.90
28075;DHT22;15385;51.088;6.572;2023-05-07T11:15:14;24.60;99.90
28075;DHT22;15385;51.088;6.572;2023-05-07T11:17:55;24.60;99.90
28075;DHT22;15385;51.088;6.572;2023-05-07T11:20:45;24.50;99.90
28075;DHT22;15385;51.088;6.572;2023-05-07T11:26:09;24.80;99.90
28075;DHT22;15385;51.088;6.572;2023-05-07T11:28:42;24.80;99.90
28075;DHT22;15385;51.088;6.572;2023-05-07T11:31:12;24.90;99.90
28075;DHT22;15385;51.088;6.572;2023-05-07T11:33:43;25.00;99.90
28075;DHT22;15385;51.088;6.572;2023-05-07T11:36:15;25.20;99.90
28075;DHT22;15385;51.088;6.572;2023-05-07T11:38:46;25.20;99.90
28075;DHT22;15385;51.088;6.572;2023-05-07T11:41:17;25.20;99.90
28075;DHT22;15385;51.088;6.572;2023-05-07T11:43:59;25.20;99.90
28075;DHT22;15385;51.088;6.572;2023-05-07T11:46:30;25.20;99.90
28075;DHT22;15385;51.088;6.572;2023-05-07T11:49:01;25.10;99.90
28075;DHT22;15385;51.088;6.572;2023-05-07T11:51:32;25.10;99.90
28075;DHT22;15385;51.088;6.572;2023-05-07T11:54:05;25.10;99.90
28075;DHT22;15385;51.088;6.572;2023-05-07T11:56:41;24.90;99.90
28075;DHT22;15385;51.088;6.572;2023-05-07T11:59:12;24.90;99.90
28075;DHT22;15385;51.088;6.572;2023-05-07T12:01:45;24.90;99.90
28075;DHT22;15385;51.088;6.572;2023-05-07T12:04:19;24.80;99.90
28075;DHT22;15385;51.088;6.572;2023-05-07T12:06:54;24.70;99.90
28075;DHT22;15385;51.088;6.572;2023-05-07T12:09:26;24.70;99.90
28075;DHT22;15385;51.088;6.572;2023-05-07T12:11:56;24.50;99.90
28075;DHT22;15385;51.088;6.572;2023-05-07T12:14:27;24.40;99.90
28075;DHT22;15385;51.088;6.572;2023-05-07T12:17:00;24.30;99.90
28075;DHT22;15385;51.088;6.572;2023-05-07T12:19:34;24.50;99.90
28075;DHT22;15385;51.088;6.572;2023-05-07T12:22:07;24.50;99.90
28075;DHT22;15385;51.088;6.572;2023-05-07T12:27:16;24.80;99.90
28075;DHT22;15385;51.088;6.572;2023-05-07T12:29:48;24.70;99.90
28075;DHT22;15385;51.088;6.572;2023-05-07T12:32:22;24.50;99.90
28075;DHT22;15385;51.088;6.572;2023-05-07T12:34:52;24.40;99.90
28075;DHT22;15385;51.088;6.572;2023-05-07T12:37:26;24.40;99.90
28075;DHT22;15385;51.088;6.572;2023-05-07T12:40:10;24.50;99.90
28075;DHT22;15385;51.088;6.572;2023-05-07T12:42:41;24.60;99.90
28075;DHT22;15385;51.088;6.572;2023-05-07T12:45:15;24.70;99.90
28075;DHT22;15385;51.088;6.572;2023-05-07T12:47:47;24.80;99.90
28075;DHT22;15385;51.088;6.572;2023-05-07T12:50:17;24.70;99.90
28075;DHT22;15385;51.088;6.572;2023-05-07T12:52:48;24.60;99.90
28075;DHT22;15385;51.088;6.572;2023-05-07T12:55:19;24.50;99.90
28075;DHT22;15385;51.088;6.572;2023-05-07T12:57:50;24.50;99.90
28075;DHT22;15385;51.088;6.572;2023-05-07T13:00:38;24.60;99.90
28075;DHT22;15385;51.088;6.572;2023-05-07T13:03:09;24.50;99.90
28075;DHT22;15385;51.088;6.572;2023-05-07T13:05:39;24.40;99.90
28075;DHT22;15385;51.088;6.572;2023-05-07T13:08:10;24.50;99.90
28075;DHT22;15385;51.088;6.572;2023-05-07T13:10:41;24.40;99.90
28075;DHT22;15385;51.088;6.572;2023-05-07T13:13:11;24.40;99.90
28075;DHT22;15385;51.088;6.572;2023-05-07T13:15:42;24.40;99.90
28075;DHT22;15385;51.088;6.572;2023-05-07T13:18:12;24.50;99.90
28075;DHT22;15385;51.088;6.572;2023-05-07T13:20:43;24.30;99.90
28075;DHT22;15385;51.088;6.572;2023-05-07T13:23:14;24.30;99.90
28075;DHT22;15385;51.088;6.572;2023-05-07T13:25:44;24.30;99.90
28075;DHT22;15385;51.088;6.572;2023-05-07T13:28:15;24.40;99.90
28075;DHT22;15385;51.088;6.572;2023-05-07T13:30:46;24.40;99.90
28075;DHT22;15385;51.088;6.572;2023-05-07T13:33:17;24.40;99.90
28075;DHT22;15385;51.088;6.572;2023-05-07T13:35:48;24.30;99.90
28075;DHT22;15385;51.088;6.572;2023-05-07T13:38:18;24.20;99.90
28075;DHT22;15385;51.088;6.572;2023-05-07T13:40:49;24.10;99.90
28075;DHT22;15385;51.088;6.572;2023-05-07T13:43:19;24.10;99.90
28075;DHT22;15385;51.088;6.572;2023-05-07T13:45:50;24.00;99.90
28075;DHT22;15385;51.088;6.572;2023-05-07T13:48:21;23.90;99.90
28075;DHT22;15385;51.088;6.572;2023-05-07T13:50:51;23.80;99.90
28075;DHT22;15385;51.088;6.572;2023-05-07T13:53:22;23.50;99.90
28075;DHT22;15385;51.088;6.572;2023-05-07T13:55:52;23.30;99.90
28075;DHT22;15385;51.088;6.572;2023-05-07T13:58:23;23.00;99.90
28075;DHT22;15385;51.088;6.572;2023-05-07T14:00:54;22.80;99.90
28075;DHT22;15385;51.088;6.572;2023-05-07T14:03:24;22.70;99.90
28075;DHT22;15385;51.088;6.572;2023-05-07T14:05:55;22.60;99.90
28075;DHT22;15385;51.088;6.572;2023-05-07T14:08:28;22.40;99.90
28075;DHT22;15385;51.088;6.572;2023-05-07T14:10:58;22.30;99.90
28075;DHT22;15385;51.088;6.572;2023-05-07T14:13:30;22.30;99.90
28075;DHT22;15385;51.088;6.572;2023-05-07T14:16:01;22.20;99.90
28075;DHT22;15385;51.088;6.572;2023-05-07T14:18:31;22.30;99.90
28075;DHT22;15385;51.088;6.572;2023-05-07T14:21:04;22.30;99.90
28075;DHT22;15385;51.088;6.572;2023-05-07T14:23:36;22.30;99.90
28075;DHT22;15385;51.088;6.572;2023-05-07T14:26:07;22.40;99.90
28075;DHT22;15385;51.088;6.572;2023-05-07T14:28:37;22.50;99.90
28075;DHT22;15385;51.088;6.572;2023-05-07T14:31:09;22.50;99.90
28075;DHT22;15385;51.088;6.572;2023-05-07T14:33:40;22.60;99.90
28075;DHT22;15385;51.088;6.572;2023-05-07T14:36:11;22.60;99.90
28075;DHT22;15385;51.088;6.572;2023-05-07T14:38:41;22.70;99.90
28075;DHT22;15385;51.088;6.572;2023-05-07T14:41:12;22.90;99.90
28075;DHT22;15385;51.088;6.572;2023-05-07T14:43:43;22.90;99.90
28075;DHT22;15385;51.088;6.572;2023-05-07T14:46:20;22.80;99.90
28075;DHT22;15385;51.088;6.572;2023-05-07T14:48:50;22.80;99.90
28075;DHT22;15385;51.088;6.572;2023-05-07T14:51:21;22.90;99.90
28075;DHT22;15385;51.088;6.572;2023-05-07T14:53:51;23.10;99.90
28075;DHT22;15385;51.088;6.572;2023-05-07T14:56:22;23.00;99.90
28075;DHT22;15385;51.088;6.572;2023-05-07T14:58:53;23.10;99.90
28075;DHT22;15385;51.088;6.572;2023-05-07T15:01:25;23.10;99.90
28075;DHT22;15385;51.088;6.572;2023-05-07T15:03:56;23.10;99.90
28075;DHT22;15385;51.088;6.572;2023-05-07T15:06:26;23.00;99.90
28075;DHT22;15385;51.088;6.572;2023-05-07T15:08:57;22.80;99.90
28075;DHT22;15385;51.088;6.572;2023-05-07T15:11:27;22.70;99.90
28075;DHT22;15385;51.088;6.572;2023-05-07T15:13:58;22.60;99.90
28075;DHT22;15385;51.088;6.572;2023-05-07T15:16:28;22.70;99.90
28075;DHT22;15385;51.088;6.572;2023-05-07T15:18:59;22.80;99.90
28075;DHT22;15385;51.088;6.572;2023-05-07T15:21:30;22.70;99.90
28075;DHT22;15385;51.088;6.572;2023-05-07T15:24:03;22.80;99.90
28075;DHT22;15385;51.088;6.572;2023-05-07T15:26:34;22.90;99.90
28075;DHT22;15385;51.088;6.572;2023-05-07T15:29:04;22.80;99.90
28075;DHT22;15385;51.088;6.572;2023-05-07T15:31:40;22.80;99.90
28075;DHT22;15385;51.088;6.572;2023-05-07T15:34:10;23.00;99.90
28075;DHT22;15385;51.088;6.572;2023-05-07T15:36:41;23.10;99.90
28075;DHT22;15385;51.088;6.572;2023-05-07T15:39:11;23.30;99.90
28075;DHT22;15385;51.088;6.572;2023-05-07T15:41:43;23.20;99.90
28075;DHT22;15385;51.088;6.572;2023-05-07T15:44:13;23.10;99.90
28075;DHT22;15385;51.088;6.572;2023-05-07T15:46:44;22.90;99.90
28075;DHT22;15385;51.088;6.572;2023-05-07T15:49:14;22.90;99.90
28075;DHT22;15385;51.088;6.572;2023-05-07T15:51:45;22.90;99.90
28075;DHT22;15385;51.088;6.572;2023-05-07T15:54:15;22.90;99.90
28075;DHT22;15385;51.088;6.572;2023-05-07T15:56:47;22.90;99.90
28075;DHT22;15385;51.088;6.572;2023-05-07T15:59:18;23.00;99.90
28075;DHT22;15385;51.088;6.572;2023-05-07T16:01:48;22.90;99.90
28075;DHT22;15385;51.088;6.572;2023-05-07T16:04:19;22.70;99.90
28075;DHT22;15385;51.088;6.572;2023-05-07T16:06:49;22.60;99.90
28075;DHT22;15385;51.088;6.572;2023-05-07T16:09:20;22.60;99.90
28075;DHT22;15385;51.088;6.572;2023-05-07T16:11:50;22.60;99.90
28075;DHT22;15385;51.088;6.572;2023-05-07T16:14:22;22.50;99.90
28075;DHT22;15385;51.088;6.572;2023-05-07T16:16:53;22.60;99.90
28075;DHT22;15385;51.088;6.572;2023-05-07T16:19:24;22.60;99.90